Lake Tahoe, CA

1:13 AM PDT on August 27, 2016 (GMT -0700)
Lake Tahoe | | Change Station

Elev 6263 ft 38.90 °N, 120.00 °W | Updated 20 minutes ago

Clear
Clear
47 °F
Feels Like 47 °F
N
4
Wind Variable Wind from South

Today
High -- | Low -- °F
--% Chance of Precip.
Yesterday
High -- | Low -- °F
Precip. -- in
Pressure 30.04 in
Visibility 10.0 miles
Clouds Clear
Dew Point 35 °F
Humidity 63%
Rainfall 0.00 in
Snow Depth Not available.
6:24 AM 7:36 PM
Waning Crescent, 26% visible
METAR KTVL 270753Z AUTO 19003KT 10SM CLR 08/02 A3020 RMK AO2 SLP173 T00830017 402560033
Pressure 30.04 in
Visibility 10.0 miles
Clouds Clear
Dew Point 35 °F
Humidity 63%
Rainfall 0.00 in
Snow Depth Not available.
6:24 AM 7:36 PM
Waning Crescent, 26% visible
METAR KTVL 270753Z AUTO 19003KT 10SM CLR 08/02 A3020 RMK AO2 SLP173 T00830017 402560033

10-Day Weather Forecast

Almanac

Astronomy

Aug. 27, 2016 Rise Set
Actual Time
Civil Twilight
Nautical Twilight
Astronomical Twilight
Moon
Length of Visible Light
Length of Day
Tomorrow will be .
, % of the Moon is Illuminated

Today's Extremes

State Highs State Lows

Community

WunderPhotos

Upload Photos

1,935,303 photos uploaded!

WunderBlog® & News

Nearby

Air Quality

  Air Quality AQ Index Pollutant
Not available.

Snow Depth

Station Depth Elevation

Earthquake Activity

City Distance Mag. Time & Date
Minimum magnitude displayed is 2.5.

Coastal Water Temperatures

Place Temperature

Stations

Nearby Weather Stations

Station Location Temp. Windchill Dew Point Humidity Wind Precip. Elev Updated Type
                   

Watches & Warnings

There are currently no watches in effect.